Time;durP1;ratioP1;P1;durP2;ratioP2;P2;SDS_P1;SDS_P2;PMS_P1;PMS_P2;Temp;Humidity;BMP_temperature;BMP_pressure;BME280_temperature;BME280_humidity;BME280_pressure;Samples;Min_cycle;Max_cycle;Signal;HPM_P1;HPM_P2
2022/06/08 00:00:23;;;;;;;7.40;5.35;;;;;;;16.62;83.94;99943.45;1744819;82;21042;-72
2022/06/08 00:03:04;;;;;;;7.08;5.17;;;;;;;16.60;83.86;99941.36;1744612;82;21065;-70
2022/06/08 00:05:30;;;;;;;8.68;6.33;;;;;;;16.57;83.64;99940.61;1745276;82;21888;-70
2022/06/08 00:07:58;;;;;;;8.43;5.87;;;;;;;16.54;83.49;99942.14;1744858;82;21037;-71
2022/06/08 00:10:25;;;;;;;10.90;6.58;;;;;;;16.52;83.79;99944.05;1744825;82;21042;-70
2022/06/08 00:12:52;;;;;;;10.60;6.50;;;;;;;16.49;84.04;99938.91;1721103;82;21529;-71
2022/06/08 00:15:20;;;;;;;8.55;6.35;;;;;;;16.45;83.74;99944.07;1715405;83;21101;-70
2022/06/08 00:17:48;;;;;;;10.05;5.95;;;;;;;16.41;84.21;99945.21;1715074;83;21069;-72
2022/06/08 00:20:15;;;;;;;17.48;6.40;;;;;;;16.36;84.15;99942.84;1715324;83;21089;-70
2022/06/08 00:22:42;;;;;;;8.93;6.42;;;;;;;16.32;84.37;99948.45;1715163;83;21053;-70
2022/06/08 00:25:10;;;;;;;11.57;6.12;;;;;;;16.27;84.51;99942.59;1715051;83;21076;-70
2022/06/08 00:27:38;;;;;;;10.85;5.92;;;;;;;16.22;84.62;99940.22;1715306;83;21076;-69
2022/06/08 00:30:07;;;;;;;9.58;6.28;;;;;;;16.17;84.71;99940.12;1715220;83;21089;-71
2022/06/08 00:32:35;;;;;;;11.75;6.17;;;;;;;16.12;85.21;99941.25;1715277;83;21026;-71
2022/06/08 00:35:03;;;;;;;8.88;5.65;;;;;;;16.07;85.62;99944.69;1715097;83;21042;-71
2022/06/08 00:37:29;;;;;;;12.18;6.12;;;;;;;16.00;85.42;99946.02;1715399;83;21077;-72
2022/06/08 00:39:56;;;;;;;7.92;5.87;;;;;;;15.94;85.64;99940.63;1715171;83;21096;-71
2022/06/08 00:42:22;;;;;;;8.08;6.20;;;;;;;15.90;85.82;99940.92;1715353;83;21084;-72
2022/06/08 00:44:58;;;;;;;9.00;6.42;;;;;;;15.85;85.83;99939.00;1715293;83;21081;-72
2022/06/08 00:47:29;;;;;;;9.33;5.08;;;;;;;15.81;86.45;99940.16;1715245;83;21065;-70
2022/06/08 00:50:04;;;;;;;11.90;6.08;;;;;;;15.75;86.16;99939.20;1715191;83;21045;-70
2022/06/08 00:52:34;;;;;;;9.50;6.10;;;;;;;15.70;86.25;99937.67;1725155;82;21066;-72
2022/06/08 00:55:05;;;;;;;10.75;6.50;;;;;;;15.64;86.40;99934.02;1731307;82;21165;-71
2022/06/08 00:57:43;;;;;;;12.60;6.62;;;;;;;15.58;87.45;99926.45;1731151;82;21065;-71
2022/06/08 01:00:17;;;;;;;12.55;6.12;;;;;;;15.53;87.92;99929.88;1731086;82;21048;-72
2022/06/08 01:02:45;;;;;;;10.10;6.33;;;;;;;15.47;88.33;99929.75;1730940;82;21753;-71
2022/06/08 01:05:24;;;;;;;10.85;6.87;;;;;;;15.42;89.13;99933.64;1731264;82;21166;-71
2022/06/08 01:07:59;;;;;;;14.47;6.20;;;;;;;15.39;89.60;99932.03;1731045;82;21077;-71
2022/06/08 01:10:32;;;;;;;8.40;5.78;;;;;;;15.35;90.39;99929.66;1731167;82;21019;-72
2022/06/08 01:13:04;;;;;;;11.05;5.87;;;;;;;15.31;91.05;99927.16;1730666;82;21091;-71
2022/06/08 01:15:28;;;;;;;11.80;5.62;;;;;;;15.28;91.63;99928.69;1730491;82;21077;-72
2022/06/08 01:17:55;;;;;;;8.45;5.92;;;;;;;15.25;92.61;99928.88;1730931;82;21054;-71
2022/06/08 01:20:22;;;;;;;8.53;5.42;;;;;;;15.22;93.23;99931.69;1682952;82;21180;-71
2022/06/08 01:22:51;;;;;;;8.43;5.42;;;;;;;15.19;93.44;99933.21;1730881;82;21081;-71
2022/06/08 01:25:18;;;;;;;9.40;5.90;;;;;;;15.17;93.88;99931.13;1730978;82;21026;-70
2022/06/08 01:28:13;;;;;;;9.15;5.35;;;;;;;15.15;93.94;99930.36;1730395;82;21030;-70
2022/06/08 01:31:02;;;;;;;11.57;5.75;;;;;;;15.16;94.08;99927.22;1730944;82;21150;-71
2022/06/08 01:34:01;;;;;;;7.55;5.97;;;;;;;15.18;94.51;99932.81;1731004;82;21267;-71
2022/06/08 01:37:07;;;;;;;7.87;4.97;;;;;;;15.18;94.67;99928.84;1730963;82;21096;-71
2022/06/08 01:40:03;;;;;;;9.33;6.05;;;;;;;15.17;94.33;99927.14;1730988;82;21074;-71
2022/06/08 01:42:58;;;;;;;12.95;5.72;;;;;;;15.18;94.65;99932.81;1731062;82;21073;-71
2022/06/08 01:45:54;;;;;;;7.72;5.60;;;;;;;15.20;94.53;99929.60;1731059;82;21054;-71
2022/06/08 01:48:52;;;;;;;10.35;5.67;;;;;;;15.21;94.51;99935.78;1730846;82;21148;-70
2022/06/08 01:51:58;;;;;;;11.25;5.92;;;;;;;15.22;94.46;99933.02;1730983;82;21124;-70
2022/06/08 01:54:50;;;;;;;6.87;5.20;;;;;;;15.23;94.76;99932.09;1730762;82;21122;-71
2022/06/08 01:58:00;;;;;;;11.73;5.90;;;;;;;15.24;95.28;99937.77;1727393;82;21613;-70
2022/06/08 02:00:35;;;;;;;11.12;5.97;;;;;;;15.24;95.28;99931.13;1730996;82;21065;-71
2022/06/08 02:03:23;;;;;;;10.43;6.20;;;;;;;15.27;95.75;99933.59;1730690;82;21861;-70
2022/06/08 02:06:01;;;;;;;11.73;6.85;;;;;;;15.26;96.16;99927.92;1730711;82;21533;-72
2022/06/08 02:09:02;;;;;;;9.90;5.95;;;;;;;15.26;96.75;99929.73;1730987;82;21042;-71
2022/06/08 02:11:44;;;;;;;10.03;5.60;;;;;;;15.25;96.97;99926.67;1731069;82;21621;-70
2022/06/08 02:14:30;;;;;;;8.33;5.55;;;;;;;15.26;96.64;99934.55;1730943;82;21140;-71
2022/06/08 02:17:14;;;;;;;9.60;5.87;;;;;;;15.25;96.41;99931.53;1731044;82;21084;-69
2022/06/08 02:19:46;;;;;;;15.15;6.35;;;;;;;15.27;96.40;99932.75;1730869;82;21062;-72
2022/06/08 02:22:39;;;;;;;9.95;6.30;;;;;;;15.28;96.34;99926.52;1731311;82;21038;-69
2022/06/08 02:25:22;;;;;;;8.95;5.83;;;;;;;15.28;96.63;99932.66;1730577;82;21621;-70
2022/06/08 02:28:00;;;;;;;8.63;5.72;;;;;;;15.28;96.98;99935.31;1730917;82;21047;-71
2022/06/08 02:30:29;;;;;;;8.78;6.03;;;;;;;15.30;97.14;99933.43;1731017;82;21138;-71
2022/06/08 02:35:54;;;;;;;10.48;5.90;;;;;;;15.37;96.64;99936.58;1729982;82;21550;-71
2022/06/08 02:38:22;;;;;;;;;;;;;;;15.41;97.14;99931.92;1733745;82;21590;-71
2022/06/08 02:40:55;;;;;;;11.33;6.33;;;;;;;15.47;96.82;99936.87;1731455;82;20207;-71
2022/06/08 02:43:27;;;;;;;8.50;5.70;;;;;;;15.50;96.40;99937.52;1731177;82;21880;-69
2022/06/08 02:46:20;;;;;;;18.60;6.33;;;;;;;15.55;96.21;99941.22;1731072;82;21012;-70
2022/06/08 02:48:48;;;;;;;8.28;5.15;;;;;;;15.59;95.59;99941.42;1731269;82;21072;-71
2022/06/08 02:51:15;;;;;;;7.90;5.47;;;;;;;15.66;94.84;99943.23;1730775;82;21054;-71
2022/06/08 02:54:05;;;;;;;6.95;5.97;;;;;;;15.71;94.29;99948.69;1730920;82;21031;-72
2022/06/08 02:57:07;;;;;;;9.28;6.25;;;;;;;15.77;93.91;99947.92;1730968;82;21916;-72
2022/06/08 02:59:49;;;;;;;12.15;5.62;;;;;;;15.83;92.39;99948.89;1724817;82;21606;-70
2022/06/08 03:02:34;;;;;;;8.50;5.70;;;;;;;15.92;91.37;99941.68;1730842;82;21054;-70
2022/06/08 03:05:09;;;;;;;6.25;5.20;;;;;;;16.04;90.32;99947.55;1730788;82;21038;-73
2022/06/08 03:07:44;;;;;;;7.05;5.65;;;;;;;16.17;89.44;99945.44;1730717;82;21645;-72
2022/06/08 03:10:13;;;;;;;8.20;6.22;;;;;;;16.27;88.67;99947.42;1730169;82;22164;-72
2022/06/08 03:12:53;;;;;;;15.00;7.83;;;;;;;16.42;88.04;99946.91;1731147;82;21066;-71
2022/06/08 03:15:24;;;;;;;13.55;7.75;;;;;;;16.57;87.52;99939.28;1730465;82;21561;-70
2022/06/08 03:17:52;;;;;;;8.88;6.58;;;;;;;16.78;86.97;99944.15;1731129;82;21484;-70
2022/06/08 03:20:23;;;;;;;8.00;6.58;;;;;;;17.02;86.45;99944.83;1731407;82;21034;-71
2022/06/08 03:22:50;;;;;;;10.10;6.87;;;;;;;17.23;85.35;99936.77;1747162;81;21522;-71
2022/06/08 03:25:18;;;;;;;9.55;6.30;;;;;;;17.45;84.56;99941.94;1761521;81;21110;-71
2022/06/08 03:27:47;;;;;;;11.43;7.05;;;;;;;17.67;83.32;99938.17;1761487;81;21644;-70
2022/06/08 03:30:14;;;;;;;10.65;6.92;;;;;;;17.84;82.36;99933.02;1761490;81;21027;-71
2022/06/08 03:32:41;;;;;;;9.15;6.47;;;;;;;18.02;81.24;99940.20;1761272;81;21058;-70
2022/06/08 03:35:10;;;;;;;13.30;7.40;;;;;;;18.16;79.80;99935.22;1761179;81;21094;-70
2022/06/08 03:37:38;;;;;;;12.13;7.17;;;;;;;18.31;78.11;99934.58;1761209;81;21070;-71
2022/06/08 03:40:08;;;;;;;12.13;7.55;;;;;;;18.43;76.43;99930.55;1761236;81;21394;-71
2022/06/08 03:42:35;;;;;;;9.93;6.70;;;;;;;18.54;74.94;99936.45;1761532;81;21567;-71
2022/06/08 03:45:02;;;;;;;10.82;6.70;;;;;;;18.61;73.75;99937.70;1761028;81;21018;-71
2022/06/08 03:47:32;;;;;;;8.58;5.83;;;;;;;18.70;72.50;99939.30;1761212;81;21141;-70
2022/06/08 03:50:01;;;;;;;12.25;6.08;;;;;;;18.77;71.73;99940.12;1761129;81;21042;-71
2022/06/08 03:52:31;;;;;;;9.73;6.25;;;;;;;18.91;70.46;99928.41;1758371;81;21116;-70
2022/06/08 03:55:00;;;;;;;17.57;6.37;;;;;;;19.08;70.00;99931.98;1744874;82;21538;-70
2022/06/08 03:57:29;;;;;;;12.97;5.73;;;;;;;19.31;68.54;99933.39;1745222;82;21093;-71
2022/06/08 04:00:00;;;;;;;7.75;5.35;;;;;;;19.57;66.40;99934.53;1745079;82;21846;-70
2022/06/08 04:02:28;;;;;;;12.05;5.58;;;;;;;19.84;65.70;99932.41;1744968;82;21049;-72
2022/06/08 04:04:55;;;;;;;11.40;5.53;;;;;;;20.11;65.18;99923.18;1724046;82;21037;-72
2022/06/08 04:07:23;;;;;;;9.90;4.30;;;;;;;20.35;63.60;99930.19;1745225;82;21085;-70
2022/06/08 04:09:51;;;;;;;8.08;4.65;;;;;;;20.62;62.34;99927.97;1745213;82;21625;-72
2022/06/08 04:12:22;;;;;;;8.63;3.85;;;;;;;20.91;59.45;99929.58;1745084;82;22145;-72
2022/06/08 04:14:50;;;;;;;6.60;4.30;;;;;;;21.21;58.79;99925.77;1745062;82;21005;-72
2022/06/08 04:17:17;;;;;;;7.47;4.00;;;;;;;21.52;57.31;99923.55;1745232;82;21050;-71
2022/06/08 04:19:44;;;;;;;9.70;4.42;;;;;;;21.79;56.00;99922.99;1745557;82;21022;-71
2022/06/08 04:22:12;;;;;;;5.17;4.00;;;;;;;22.04;55.54;99925.34;1745009;82;21546;-71
2022/06/08 04:24:39;;;;;;;7.20;4.80;;;;;;;22.26;54.68;99923.83;1744932;82;21505;-71
2022/06/08 04:27:06;;;;;;;9.93;4.62;;;;;;;22.46;54.00;99924.73;1744990;82;21018;-71
2022/06/08 04:29:35;;;;;;;9.88;4.83;;;;;;;22.65;53.61;99926.59;1745079;82;21410;-71
2022/06/08 04:32:07;;;;;;;9.05;4.87;;;;;;;22.89;52.34;99926.67;1745085;82;21089;-72
2022/06/08 04:34:35;;;;;;;8.43;5.00;;;;;;;23.16;51.03;99930.87;1745050;82;21096;-71
2022/06/08 04:37:02;;;;;;;11.43;4.53;;;;;;;23.43;50.36;99926.60;1745333;82;21103;-73
2022/06/08 04:39:30;;;;;;;5.92;4.05;;;;;;;23.64;49.58;99931.28;1744111;82;21045;-72
2022/06/08 04:41:59;;;;;;;10.43;4.70;;;;;;;23.86;49.69;99930.63;1745252;82;21065;-71
2022/06/08 04:44:27;;;;;;;13.75;5.22;;;;;;;24.16;49.03;99931.35;1744648;82;21093;-70
2022/06/08 04:46:54;;;;;;;8.40;4.65;;;;;;;24.38;48.18;99930.92;1745353;82;21171;-72
2022/06/08 04:49:23;;;;;;;10.43;5.03;;;;;;;24.63;46.91;99934.77;1745096;82;21147;-71
2022/06/08 04:51:51;;;;;;;14.23;4.17;;;;;;;24.84;46.57;99925.55;1744976;82;21089;-72
2022/06/08 04:54:18;;;;;;;7.20;4.15;;;;;;;25.04;45.33;99930.28;1757874;81;21089;-71
2022/06/08 04:56:46;;;;;;;5.30;3.00;;;;;;;25.22;44.94;99933.00;1761189;81;21053;-72
2022/06/08 04:59:13;;;;;;;8.93;2.90;;;;;;;25.42;43.78;99929.59;1761414;81;21022;-71
2022/06/08 05:01:42;;;;;;;9.95;3.10;;;;;;;25.56;42.68;99925.00;1761220;81;22133;-71
2022/06/08 05:04:10;;;;;;;10.38;3.27;;;;;;;25.60;42.43;99918.26;1761205;81;21019;-72
2022/06/08 05:06:37;;;;;;;4.08;2.25;;;;;;;25.79;42.14;99925.78;1761230;81;21046;-72
2022/06/08 05:09:04;;;;;;;6.40;1.72;;;;;;;26.03;40.34;99920.55;1761513;81;21059;-72
2022/06/08 05:11:33;;;;;;;11.35;2.58;;;;;;;26.20;38.56;99928.72;1761162;81;21054;-70
2022/06/08 05:14:02;;;;;;;4.62;2.27;;;;;;;26.34;39.37;99928.09;1761127;81;21023;-70
2022/06/08 05:16:29;;;;;;;4.95;1.85;;;;;;;26.48;38.22;99929.30;1761023;81;21097;-71
2022/06/08 05:18:57;;;;;;;5.28;2.02;;;;;;;26.53;38.22;99930.52;1761278;81;21035;-71
2022/06/08 05:21:24;;;;;;;2.95;2.15;;;;;;;26.55;37.68;99929.05;1761222;81;21105;-71
2022/06/08 05:23:50;;;;;;;5.10;2.50;;;;;;;26.67;36.48;99929.06;1761572;81;21047;-70
2022/06/08 05:26:19;;;;;;;5.75;2.17;;;;;;;26.71;36.58;99931.78;1760602;81;21548;-71
2022/06/08 05:28:47;;;;;;;3.85;1.75;;;;;;;26.74;36.20;99926.55;1761533;81;21051;-71
2022/06/08 05:31:14;;;;;;;7.28;2.10;;;;;;;26.77;36.48;99923.50;1761162;81;21057;-70
2022/06/08 05:33:43;;;;;;;5.05;2.22;;;;;;;26.92;36.15;99930.46;1761248;81;21038;-71
2022/06/08 05:36:12;;;;;;;9.63;2.50;;;;;;;26.99;35.83;99925.56;1760801;81;21069;-72
2022/06/08 05:38:38;;;;;;;7.03;2.17;;;;;;;27.04;35.44;99929.11;1761342;81;21137;-71
2022/06/08 05:41:06;;;;;;;3.92;1.70;;;;;;;27.11;35.45;99925.23;1761259;80;21011;-70
2022/06/08 05:43:34;;;;;;;12.23;2.20;;;;;;;27.19;35.27;99930.62;1761537;81;21046;-73
2022/06/08 05:46:02;;;;;;;5.25;1.90;;;;;;;27.44;34.91;99923.88;1761409;81;21046;-73
2022/06/08 05:48:29;;;;;;;4.33;1.70;;;;;;;27.71;34.51;99928.06;1761457;80;21015;-72
2022/06/08 05:50:57;;;;;;;6.17;2.00;;;;;;;27.81;33.46;99928.22;1761488;81;21932;-71
2022/06/08 05:53:24;;;;;;;1.77;1.50;;;;;;;27.89;33.64;99931.95;1757017;81;21046;-73
2022/06/08 05:55:52;;;;;;;5.15;1.40;;;;;;;28.06;31.98;99929.50;1744955;82;21049;-74
2022/06/08 05:58:19;;;;;;;4.50;1.40;;;;;;;28.20;31.87;99924.70;1732718;82;21054;-72
2022/06/08 06:00:47;;;;;;;3.33;1.30;;;;;;;28.18;31.62;99926.77;1715231;83;21089;-72
2022/06/08 06:03:15;;;;;;;4.08;2.00;;;;;;;28.37;31.26;99919.23;1715182;83;21078;-72
2022/06/08 06:05:43;;;;;;;6.42;2.30;;;;;;;28.55;31.20;99917.13;1715284;83;21542;-71
2022/06/08 06:08:12;;;;;;;5.33;1.50;;;;;;;28.68;31.70;99919.23;1715317;83;21087;-72
2022/06/08 06:10:44;;;;;;;4.05;1.45;;;;;;;28.92;30.99;99915.52;1715208;82;21646;-72
2022/06/08 06:13:13;;;;;;;3.42;1.27;;;;;;;28.96;31.40;99922.23;1743840;82;21033;-72
2022/06/08 06:15:48;;;;;;;3.62;1.72;;;;;;;29.10;30.01;99915.73;1743836;82;21918;-73
2022/06/08 06:18:16;;;;;;;5.22;1.72;;;;;;;29.13;30.22;99908.61;1723953;82;21644;-73
2022/06/08 06:20:42;;;;;;;2.90;1.25;;;;;;;29.18;29.98;99912.97;1744836;82;21553;-73
2022/06/08 06:23:14;;;;;;;2.95;1.50;;;;;;;29.23;30.01;99914.61;1744683;81;21085;-74
2022/06/08 06:25:53;;;;;;;1.85;1.30;;;;;;;29.31;29.57;99911.84;1743953;82;21093;-73
2022/06/08 06:28:38;;;;;;;8.40;1.90;;;;;;;29.34;29.14;99911.45;1744643;82;21536;-73
2022/06/08 06:31:18;;;;;;;1.62;1.35;;;;;;;29.38;29.23;99909.20;1743647;82;21072;-73
2022/06/08 06:33:47;;;;;;;3.40;1.30;;;;;;;29.56;29.76;99908.86;1743403;82;21037;-72
2022/06/08 06:36:13;;;;;;;3.90;1.60;;;;;;;29.92;28.55;99902.73;1744967;82;21569;-72
2022/06/08 06:38:40;;;;;;;8.95;1.62;;;;;;;30.38;28.66;99907.95;1745249;82;21541;-72
2022/06/08 06:41:12;;;;;;;7.05;1.70;;;;;;;30.38;28.66;99907.95;1744713;82;21202;-72
2022/06/08 06:43:39;;;;;;;2.77;1.50;;;;;;;30.34;28.34;99903.40;1745108;82;21069;-73
2022/06/08 06:46:20;;;;;;;5.08;1.42;;;;;;;30.40;28.29;99902.64;1742820;82;28251;-72
2022/06/08 06:48:51;;;;;;;1.90;1.40;;;;;;;30.68;28.51;99906.81;1735221;81;21014;-73
2022/06/08 06:51:18;;;;;;;4.45;1.50;;;;;;;30.69;27.53;99905.80;1744837;82;21034;-73
2022/06/08 06:53:45;;;;;;;2.60;1.30;;;;;;;30.81;27.33;99897.13;1749592;81;21039;-72
2022/06/08 06:56:14;;;;;;;5.58;1.50;;;;;;;31.07;27.30;99901.99;1760961;81;21433;-73
2022/06/08 06:58:50;;;;;;;3.25;1.72;;;;;;;31.34;26.91;99901.17;1759428;81;21065;-73
2022/06/08 07:01:16;;;;;;;9.90;1.75;;;;;;;31.53;26.49;99906.46;1760127;81;21527;-73
2022/06/08 07:03:44;;;;;;;3.60;1.47;;;;;;;31.58;26.52;99906.39;1761464;81;21003;-72
2022/06/08 07:08:11;;;;;;;3.58;1.70;;;;;;;31.37;27.20;99897.21;1796635;79;22645;-72
2022/06/08 07:10:39;;;;;;;3.52;1.95;;;;;;;31.37;27.13;99897.21;1756429;81;20985;-73
2022/06/08 07:13:07;;;;;;;2.95;1.47;;;;;;;31.31;26.34;99902.07;1756568;81;21085;-72
2022/06/08 07:15:36;;;;;;;4.20;1.40;;;;;;;31.18;26.28;99899.27;1756323;81;20932;-73
2022/06/08 07:18:02;;;;;;;4.45;1.47;;;;;;;31.31;26.28;99896.63;1756960;81;21095;-72
2022/06/08 07:20:32;;;;;;;2.98;1.52;;;;;;;31.39;26.83;99895.13;1756581;81;21055;-72
2022/06/08 07:22:58;;;;;;;3.70;1.40;;;;;;;31.39;26.83;99895.13;1756589;81;20951;-72
2022/06/08 07:25:26;;;;;;;4.17;1.50;;;;;;;31.36;26.98;99897.73;1756245;81;21120;-71
2022/06/08 07:27:53;;;;;;;3.05;1.60;;;;;;;31.25;26.61;99893.36;1737319;81;20996;-72
2022/06/08 07:30:20;;;;;;;3.37;1.42;;;;;;;31.27;26.61;99894.84;1756152;81;21079;-70
2022/06/08 07:32:47;;;;;;;4.35;1.30;;;;;;;31.32;26.80;99898.33;1756056;81;21030;-73
2022/06/08 07:35:14;;;;;;;4.65;1.72;;;;;;;31.23;26.83;99895.44;1756189;81;21082;-72
2022/06/08 07:37:41;;;;;;;7.30;1.65;;;;;;;31.09;27.04;99889.05;1756436;81;21089;-73
2022/06/08 07:40:10;;;;;;;2.95;1.52;;;;;;;30.98;26.96;99892.29;1755819;81;21075;-72
2022/06/08 07:42:37;;;;;;;4.50;1.40;;;;;;;31.05;27.38;99888.58;1756321;81;21035;-73
2022/06/08 07:45:06;;;;;;;6.10;1.70;;;;;;;31.20;26.86;99893.09;1756043;81;21152;-73
2022/06/08 07:47:33;;;;;;;2.23;1.47;;;;;;;31.15;26.84;99893.19;1756162;81;21062;-72
2022/06/08 07:50:00;;;;;;;4.30;1.30;;;;;;;31.05;26.69;99894.02;1755997;81;21140;-72
2022/06/08 07:52:26;;;;;;;3.08;1.30;;;;;;;31.30;26.42;99886.27;1756134;81;21031;-72
2022/06/08 07:54:53;;;;;;;4.70;1.60;;;;;;;31.84;26.25;99888.00;1756437;81;21106;-71
2022/06/08 07:57:23;;;;;;;2.58;1.65;;;;;;;32.15;26.32;99882.12;1756289;81;21059;-72
2022/06/08 07:59:50;;;;;;;3.87;1.50;;;;;;;32.13;25.36;99885.03;1737246;81;21571;-73
2022/06/08 08:02:17;;;;;;;3.27;1.50;;;;;;;32.10;25.02;99880.53;1756192;81;21240;-73
2022/06/08 08:04:44;;;;;;;5.42;1.98;;;;;;;32.27;25.31;99887.81;1727111;81;21054;-73
2022/06/08 08:07:13;;;;;;;3.80;1.60;;;;;;;32.40;24.72;99884.61;1720141;82;21543;-73
2022/06/08 08:09:40;;;;;;;6.33;1.60;;;;;;;32.28;24.77;99885.39;1713577;82;21107;-72
2022/06/08 08:12:11;;;;;;;4.30;1.20;;;;;;;32.16;25.47;99881.06;1713311;82;21101;-73
2022/06/08 08:14:37;;;;;;;4.15;1.42;;;;;;;32.32;25.13;99877.97;1679059;85;21163;-72
2022/06/08 08:17:04;;;;;;;6.40;1.60;;;;;;;32.02;23.95;99884.78;1713304;83;21045;-74
2022/06/08 08:19:32;;;;;;;5.87;1.80;;;;;;;31.44;24.81;99891.33;1713179;83;21065;-72
2022/06/08 08:22:00;;;;;;;4.60;1.50;;;;;;;31.09;25.92;99887.16;1712939;83;21057;-73
2022/06/08 08:24:27;;;;;;;4.53;1.40;;;;;;;30.73;26.35;99890.76;1678400;85;21200;-72
2022/06/08 08:26:55;;;;;;;3.75;1.52;;;;;;;30.24;26.60;99890.09;1713077;83;21777;-72
2022/06/08 08:29:22;;;;;;;3.42;1.65;;;;;;;30.21;27.29;99886.41;1713022;82;21029;-72
2022/06/08 08:31:49;;;;;;;3.30;1.50;;;;;;;30.27;27.30;99887.55;1678841;85;21022;-73
2022/06/08 08:34:16;;;;;;;8.33;1.70;;;;;;;30.38;26.42;99880.78;1678635;85;21061;-71
2022/06/08 08:36:43;;;;;;;5.00;1.30;;;;;;;30.52;26.52;99887.52;1713076;83;21069;-72
2022/06/08 08:39:10;;;;;;;4.05;1.37;;;;;;;30.62;26.35;99877.71;1678387;85;21150;-72
2022/06/08 08:44:36;;;;;;;3.58;1.60;;;;;;;30.42;26.28;99888.36;1661121;85;21214;-73
2022/06/08 08:47:29;;;;;;;6.40;1.70;;;;;;;30.34;26.69;99891.17;1712868;83;21089;-72
2022/06/08 08:50:06;;;;;;;5.50;1.80;;;;;;;30.64;26.59;99895.99;1713159;83;21534;-72
2022/06/08 08:52:42;;;;;;;3.12;1.35;;;;;;;30.96;26.68;99882.95;1678403;85;21231;-74
2022/06/08 08:55:17;;;;;;;3.02;1.32;;;;;;;31.33;25.23;99882.31;1712980;83;21093;-72
2022/06/08 08:57:59;;;;;;;5.42;1.77;;;;;;;31.89;24.58;99881.45;1688736;83;21029;-73
2022/06/08 09:00:38;;;;;;;2.22;1.27;;;;;;;32.29;23.67;99871.58;1678585;85;21132;-72
2022/06/08 09:03:33;;;;;;;5.70;1.57;;;;;;;32.17;23.95;99878.67;1713288;82;21030;-72
2022/06/08 09:06:15;;;;;;;3.87;1.60;;;;;;;32.07;23.48;99875.47;1712714;82;21569;-72
2022/06/08 09:08:43;;;;;;;3.47;1.70;;;;;;;32.15;23.90;99869.86;1724936;83;21120;-74
2022/06/08 09:11:18;;;;;;;4.60;1.55;;;;;;;32.56;23.94;99854.81;1726006;83;21057;-73
2022/06/08 09:14:00;;;;;;;4.47;1.35;;;;;;;32.56;23.94;99854.81;1725702;82;21031;-71
2022/06/08 09:16:43;;;;;;;5.97;1.43;;;;;;;32.86;23.20;99860.41;1726267;82;21020;-72
2022/06/08 09:19:28;;;;;;;3.70;1.70;;;;;;;33.07;22.77;99860.76;1725335;82;21214;-71
2022/06/08 09:22:06;;;;;;;11.05;1.75;;;;;;;33.00;22.79;99859.36;1725647;82;21713;-71
2022/06/08 09:24:38;;;;;;;3.52;1.40;;;;;;;32.64;23.17;99856.48;1725863;83;21789;-71
2022/06/08 09:27:29;;;;;;;3.87;1.75;;;;;;;32.58;24.08;99860.06;1725913;82;21137;-72
2022/06/08 09:30:09;;;;;;;4.17;1.30;;;;;;;32.68;23.19;99854.20;1726271;82;21063;-72
2022/06/08 09:32:49;;;;;;;;;;;;;;;32.68;22.88;99860.48;1728513;83;21297;-74
2022/06/08 09:35:39;;;;;;;5.05;1.57;;;;;;;32.54;23.05;99857.42;1726457;83;20215;-73
2022/06/08 09:38:12;;;;;;;9.95;1.82;;;;;;;32.64;23.40;99851.03;1725838;82;21129;-74
2022/06/08 09:40:53;;;;;;;2.35;1.50;;;;;;;32.99;23.46;99856.30;1726261;83;21074;-72
2022/06/08 09:43:45;;;;;;;2.50;1.40;;;;;;;33.10;23.01;99858.43;1722123;82;21634;-72
2022/06/08 09:46:21;;;;;;;4.67;1.40;;;;;;;32.83;22.83;99858.08;1725589;82;22222;-73
2022/06/08 09:52:07;;;;;;;4.72;1.27;;;;;;;32.75;23.74;99850.42;1688018;82;21046;-72
2022/06/08 09:54:55;;;;;;;2.25;1.30;;;;;;;32.89;23.28;99849.08;1725796;83;21055;-70
2022/06/08 09:57:44;;;;;;;1.55;1.02;;;;;;;32.84;23.01;99847.50;1725447;82;21063;-72
2022/06/08 10:00:44;;;;;;;5.92;2.10;;;;;;;32.68;23.54;99845.48;1684278;82;21749;-74
2022/06/08 10:03:24;;;;;;;2.55;1.30;;;;;;;32.60;23.28;99845.67;1726219;81;21040;-71
2022/06/08 10:06:22;;;;;;;3.30;1.40;;;;;;;32.24;23.77;99841.39;1725792;82;21050;-72
2022/06/08 10:09:04;;;;;;;3.83;1.22;;;;;;;31.96;24.32;99849.68;1721245;82;21054;-74
2022/06/08 10:11:43;;;;;;;4.22;1.27;;;;;;;31.78;24.58;99847.47;1714026;83;21090;-73
2022/06/08 10:14:42;;;;;;;1.98;1.50;;;;;;;31.74;24.72;99843.45;1690898;84;21192;-72
2022/06/08 10:17:17;;;;;;;3.98;1.40;;;;;;;31.73;24.93;99841.80;1691688;84;21083;-73
2022/06/08 10:20:08;;;;;;;2.17;1.40;;;;;;;32.02;24.89;99837.12;1691850;84;21114;-71
2022/06/08 10:22:42;;;;;;;10.58;1.42;;;;;;;32.61;24.93;99825.56;1691518;84;21062;-72
2022/06/08 10:25:24;;;;;;;5.35;1.20;;;;;;;33.36;23.74;99825.34;1691851;84;22081;-73
2022/06/08 10:27:59;;;;;;;5.97;1.30;;;;;;;33.63;22.64;99817.95;1682607;84;21439;-74
2022/06/08 10:30:37;;;;;;;1.90;1.20;;;;;;;33.80;22.67;99822.43;1692148;84;21094;-72
2022/06/08 10:33:09;;;;;;;7.70;1.60;;;;;;;34.01;22.28;99816.66;1691909;84;21172;-74
2022/06/08 10:35:43;;;;;;;3.15;1.27;;;;;;;34.03;21.83;99815.91;1692084;84;21547;-72
2022/06/08 10:38:32;;;;;;;5.50;1.42;;;;;;;33.84;22.22;99818.19;1691771;84;21095;-73
2022/06/08 10:42:39;;;;;;;3.65;1.10;;;;;;;33.87;22.28;99805.48;1696982;84;21133;-72
2022/06/08 10:43:35;;;;;;;8.45;1.40;;;;;;;34.18;22.04;99802.51;1688860;84;21071;-73
2022/06/08 10:46:06;;;;;;;2.52;1.17;;;;;;;34.36;22.10;99803.97;1691424;84;21087;-73
2022/06/08 10:48:49;;;;;;;5.10;1.30;;;;;;;34.61;21.57;99800.47;1689045;84;21082;-73
2022/06/08 10:51:21;;;;;;;6.60;1.72;;;;;;;34.91;22.23;99799.81;1691596;84;21753;-73
2022/06/08 10:56:42;;;;;;;3.67;1.25;;;;;;;35.18;20.95;99806.73;1691997;84;21094;-73
2022/06/08 10:59:24;;;;;;;1.32;1.07;;;;;;;34.58;20.87;99800.86;1691667;84;21619;-74
2022/06/08 11:02:05;;;;;;;2.80;1.40;;;;;;;33.81;21.12;99794.05;1691957;84;21399;-74
2022/06/08 11:04:38;;;;;;;1.32;1.02;;;;;;;33.18;22.00;99796.84;1691650;84;21067;-73
2022/06/08 11:07:13;;;;;;;2.33;1.20;;;;;;;32.57;22.70;99801.95;1692172;82;21138;-73
2022/06/08 11:09:51;;;;;;;2.22;1.10;;;;;;;32.33;22.79;99793.84;1725715;82;21085;-73
2022/06/08 11:12:51;;;;;;;46.45;4.67;;;;;;;32.33;23.07;99800.65;1726021;82;22154;-70
2022/06/08 11:15:39;;;;;;;7.17;1.40;;;;;;;32.58;23.19;99798.73;1732523;82;21022;-73
2022/06/08 11:18:31;;;;;;;4.67;1.30;;;;;;;32.71;22.88;99795.98;1725628;83;21569;-71
2022/06/08 11:21:26;;;;;;;2.20;1.30;;;;;;;32.60;22.81;99793.38;1725558;83;21327;-73
2022/06/08 11:24:04;;;;;;;3.52;1.32;;;;;;;32.44;23.33;99796.98;1725696;83;21628;-72
2022/06/08 11:26:43;;;;;;;3.35;1.20;;;;;;;32.17;23.32;99794.22;1725334;82;21060;-73
2022/06/08 11:29:25;;;;;;;3.60;1.20;;;;;;;31.93;23.75;99790.99;1726010;83;21065;-73
2022/06/08 11:31:55;;;;;;;2.70;1.32;;;;;;;31.92;23.90;99789.30;1709314;83;21009;-72
2022/06/08 11:34:40;;;;;;;2.30;1.15;;;;;;;31.90;23.59;99791.38;1725992;82;21099;-71
2022/06/08 11:37:30;;;;;;;1.72;1.30;;;;;;;31.84;23.57;99788.13;1714156;82;21057;-73
2022/06/08 11:40:25;;;;;;;6.60;1.65;;;;;;;31.78;23.70;99786.21;1725942;82;20993;-74
2022/06/08 11:43:09;;;;;;;2.75;1.20;;;;;;;31.79;23.92;99783.79;1724615;82;21624;-73
2022/06/08 11:45:52;;;;;;;7.92;1.65;;;;;;;31.68;24.26;99777.56;1725864;82;21042;-73
2022/06/08 11:48:28;;;;;;;11.57;1.75;;;;;;;31.62;24.61;99780.59;1725935;82;21077;-73
2022/06/08 11:51:01;;;;;;;3.22;1.20;;;;;;;31.47;24.53;99785.32;1725393;82;21605;-73
2022/06/08 11:53:38;;;;;;;2.12;1.30;;;;;;;31.44;24.55;99777.57;1709488;83;21041;-73
2022/06/08 11:56:28;;;;;;;4.35;1.57;;;;;;;31.50;24.72;99776.25;1725884;83;21081;-71
2022/06/08 11:59:04;;;;;;;1.52;1.20;;;;;;;31.70;24.31;99774.98;1725969;82;21540;-73
2022/06/08 12:01:52;;;;;;;1.20;1.10;;;;;;;31.92;24.44;99766.15;1726079;82;21854;-72
2022/06/08 12:04:24;;;;;;;3.65;1.10;;;;;;;32.03;23.72;99765.28;1710205;83;21045;-72
2022/06/08 12:06:53;;;;;;;5.60;1.57;;;;;;;32.25;23.33;99764.05;1725808;82;21073;-74
2022/06/08 12:09:34;;;;;;;3.08;1.30;;;;;;;32.38;22.98;99767.33;1715381;82;21058;-72
2022/06/08 12:12:21;;;;;;;11.25;1.60;;;;;;;32.31;23.00;99759.67;1713156;83;21715;-73
2022/06/08 12:14:47;;;;;;;3.00;1.32;;;;;;;32.31;23.37;99760.50;1713085;82;21195;-74
2022/06/08 12:17:21;;;;;;;3.75;1.50;;;;;;;32.46;22.78;99755.38;1712790;83;21041;-74